メインページ
METAR-TAF:

METAR-TAF

空港 :

Castlegar, ブリティッシュコロンビア州, カナダ

緯度: 49-18N, 経度: 117-38W, 海抜: 495m

現時点の気象観測

当レポートは5時間35分前の01:00(UTC)に作成
の風 7kt、から北東の間で変化する
気温 2°C
湿度 75%
気圧 1021 hPa
視程: 24.1km
高度2200ftの千切れ雲あり

METAR: CYCG 210100Z 01007KT 350V050 15SM BKN022 02/M02 A3015 RMK SC7 LAST STFD OBS/NEXT 211400Z SLP232

時間: 22:35 (06:35 UTC)

予報

当レポートは8時間19分前の22:16(UTC)に作成
予報は20日の 22時(UTC)から 21日の 01時(UTC)まで有効
北/北西の風 7kt
視程: 10km
高度2000ftの千切れ雲あり
20日の 23時(UTC)から 21日の 01時(UTC)まで徐々に
高度3000ftの雲はほとんどない
高度22000ftの雲は散在している

TAF: CYCG 202216Z 2022/2101 34007KT P6SM BKN020 BECMG 2023/2101 FEW030 SCT220 RMK NXT FCST WILL BE ISSUED AT 211545Z

4,000以上の空港の気象観測と天気予報(METAR報とTAF報)

利用可能な観測所は地図上に黄色い丸と赤い丸で示す。

丸の上にカーソルを重ねると観測所名を参照できる。

次にクリックすると気象観測と天気予報を参照できる。

マップの切り替え:黒色「×」印の緑ボタンをクリックして拡大、「-」印の緑ボタンをクリックして縮小、緑色の三角印をクリックして隣りの地図に切り替え


METAR-TAF: